• Join FlightAware (Why Join?)
  • Login
  • US Flag 
12:55AM EDT


 

Airport Tracker/Info


-or-


 

Live Flight TrackerFlight Track Log ✈ N550WC ✈ 24-Jul-2013 ✈ KJBR - KCPS

Flight Track Log - Related Links

Times and Time Zones

All times are in EDT time to prevent confusion due to time zone crossing. See the N550WC flight status page for this flight to view local times or setup timezone preferences in your user account.

Time Position Orientation Groundspeed Altitude Reporting Facility
EDT Latitude Longitude Course Direction KTS MPH feet Rate Location/Type
06:20PM 35.9289 -90.6261 11° North 169 194 2,600  Level Memphis Center
06:21PM 35.9603 -90.6161 14° North 146 168 3,300 600 Climbing Memphis Center
06:22PM 35.9958 -90.6111 North 128 147 3,900 540 Climbing Memphis Center
06:23PM 36.0333 -90.6033 10° North 123 142 4,400 480 Climbing Memphis Center
06:24PM 36.0686 -90.5958 10° North 123 142 4,900 420 Climbing Memphis Center
06:25PM 36.0899 -90.5734 11° North  Level FlightAware Approximate
06:25PM 36.1022 -90.5883 10° North 123 142 5,300  Level Memphis Center
06:26PM 36.1375 -90.5781 13° North 128 147 5,600 240 Climbing Memphis Center
06:27PM 36.1750 -90.5703 10° North 128 147 5,800 240 Climbing Memphis Center
06:28PM 36.2128 -90.5628 North 133 153 6,100 300 Climbing Memphis Center
06:29PM 36.2522 -90.5553 North 133 153 6,400 240 Climbing Memphis Center
06:30PM 36.2878 -90.5475 10° North 133 153 6,600 240 Climbing Memphis Center
06:31PM 36.3231 -90.5397 10° North 128 147 6,900 240 Climbing Memphis Center
06:32PM 36.3608 -90.5322 North 123 142 7,100 240 Climbing Memphis Center
06:33PM 36.3961 -90.5244 10° North 123 142 7,400 300 Climbing Memphis Center
06:34PM 36.4336 -90.5169 North 123 142 7,700 240 Climbing Memphis Center
06:35PM 36.4669 -90.5092 11° North 123 142 7,900 240 Climbing Memphis Center
06:36PM 36.5047 -90.5017 North 123 142 8,200 300 Climbing Memphis Center
06:37PM 36.5400 -90.4914 13° North 123 142 8,500 240 Climbing Memphis Center
06:38PM 36.5733 -90.4861 North 123 142 8,700 240 Climbing Memphis Center
06:39PM 36.6067 -90.4758 14° North 123 142 9,000 120 Climbing Memphis Center
06:40PM 36.6442 -90.4708 North 123 142 9,000 -60 Level Memphis Center
06:41PM 36.6839 -90.4631 North 134 154 8,900  Descending Memphis Center
06:42PM 36.7214 -90.4528 12° North 140 161 9,000 60 Climbing Memphis Center
06:43PM 36.7653 -90.4425 11° North 140 161 9,100  Climbing Memphis Center
06:44PM 36.8028 -90.4347 North 140 161 9,000 -60 Descending Memphis Center
06:47PM 36.9006 -90.4083 12° North 143 165 9,000 -60 Level Kansas City Center
06:48PM 36.9397 -90.4003 North 143 165 8,900 -120 Descending Kansas City Center
06:49PM 36.9808 -90.3914 10° North 145 167 8,800  Descending Kansas City Center
06:50PM 37.0208 -90.3819 11° North 146 168 8,900  Climbing Kansas City Center
06:51PM 37.0667 -90.3717 10° North 140 161 8,900  Level Kansas City Center
06:52PM 37.1069 -90.3625 10° North 145 167 8,900  Level Kansas City Center
06:53PM 37.1467 -90.3525 11° North 144 166 8,900  Level Kansas City Center
06:54PM 37.1869 -90.3447 North 145 167 8,900  Level Kansas City Center
06:55PM 37.2261 -90.3339 12° North 144 166 8,900  Level Kansas City Center
06:56PM 37.2667 -90.3267 North 145 167 8,900  Level Kansas City Center
06:57PM 37.3064 -90.3175 10° North 145 167 8,900  Level Kansas City Center
06:58PM 37.3500 -90.3075 10° North 146 168 8,900  Level Kansas City Center
06:59PM 37.3894 -90.2975 11° North 145 167 8,900 -180 Level Kansas City Center
07:00PM 37.4311 -90.2881 10° North 149 171 8,600 -300 Descending Kansas City Center
07:01PM 37.4736 -90.2806 North 154 177 8,300 -420 Descending Kansas City Center
07:02PM 37.5267 -90.2675 11° North 160 184 7,800 -420 Descending Kansas City Center
07:03PM 37.5697 -90.2561 12° North 159 183 7,500 -300 Descending Kansas City Center
07:04PM 37.6144 -90.2472 North 162 186 7,200 -360 Descending Kansas City Center
07:05PM 37.6578 -90.2378 10° North 159 183 6,800 -360 Descending Kansas City Center
07:06PM 37.7028 -90.2300 North 162 186 6,500 -300 Descending Kansas City Center
07:07PM 37.7483 -90.2275 North 164 189 6,200 -420 Descending Kansas City Center
07:08PM 37.8036 -90.2208 North 167 192 5,700 -420 Descending Kansas City Center
07:09PM 37.8497 -90.2169 North 166 191 5,400 -360 Descending Kansas City Center
07:10PM 37.8961 -90.2142 North 167 192 5,000 -240 Descending Kansas City Center
07:12PM 37.9667 -90.2167 358° North 151 174 4,900 -60 Descending Gateway (St. Louis) TRACON
07:13PM 38.0000 -90.2000 22° Northeast 148 170 4,900 -180 Level Gateway (St. Louis) TRACON
07:13PM 38.0308 -90.2014 358° North 149 171 4,700 -360 Descending Kansas City Center
07:14PM 38.0750 -90.1983 North 158 182 4,400 -360 Descending Kansas City Center
07:15PM 38.1203 -90.1950 North 162 186 4,000 -240 Descending Kansas City Center
07:17PM 38.1631 -90.1897 North 158 182 4,000 -60 Level Kansas City Center
07:18PM 38.2031 -90.1864 North 152 175 3,900 -240 Descending Kansas City Center
07:19PM 38.2447 -90.1833 North 149 171 3,500 -540 Descending Kansas City Center
07:20PM 38.2972 -90.1794 North 153 176 2,900 -540 Descending Kansas City Center
07:21PM 38.3406 -90.1747 North 156 180 2,400 -480 Descending Kansas City Center
07:22PM 38.3831 -90.1722 North 156 180 2,000 -420 Descending Kansas City Center
07:23PM 38.4244 -90.1758 356° North 152 175 1,600 -240 Descending Kansas City Center
07:24PM 38.4644 -90.1792 356° North 149 171 1,600  Level Kansas City Center
07:25PM 38.5031 -90.1825 356° North 144 166 1,600 -60 Level Kansas City Center
07:26PM 38.5447 -90.1864 356° North 134 154 1,500 -300 Descending Kansas City Center
07:27PM 38.5719 -90.1906 353° North 114 131 1,100 -540 Descending Kansas City Center
07:28PM 38.5714 -90.1589 91° East 110 127 500 -600 Descending Kansas City Center
07:30PM 38.5667 -90.1500 90° East  Level FlightAware Approximate
07:37PM 38.5704 -90.1551 90° East  Level Estimated
07:38PM 38.5667 -90.1500 90° East  Level FlightAware Approximate